My Meet Scores
Amelie Miron, Naperville Gymnastics Club - MyMeetScores.com
Top100 | Top Teams | Upcoming Meets | Completed Meets | Latest | Add Scores | Help| Support | Bookmark and Share

Amelie Miron, Naperville Gymnastics Club
Personal Bests
LevelVault BarsBeamFloorAA
48.9008.850 8.8008.47534.500
69.2509.375 8.8509.27536.300
79.2259.350 9.2509.27536.525
89.2008.775 8.7009.22535.600
Meet Scores
Date Meet Team Session Level Division Vault Bars Beam Floor AA
2020-03-06 2020 Flip'r Invitational Naperville Gymnastics Club 6 8 JR A 9.200 7 8.600 10 8.700 9 9.100 9 35.600 9
2020-02-21 Kinetic Classic Naperville Gymnastics Club 04 8 Younger 8.325 25 8.475 19 8.700 18 8.900 19 34.400 19
2020-01-10 Leenda's Island Adventure Naperville Gymnastics Club PG3 8 11 & Under 8.150 8 8.775 8 8.700 6 9.225 5T 34.850 8
2019-12-07 Home for the Holidays 2019 Naperville Gymnastics Club 3 8 Younger 8.925 6 7.750 13 8.175 12 8.425 11 33.275 12
2019-04-26 Level 7/8 Region 5 Regionals Naperville Gymnastics Club 9A 7 JRA1 9.225 33 7.800 33 9.250 25T 9.275 25T 35.550 32
2019-03-29 Illinois Level 7 & 8 State Meet Naperville Gymnastics Club 6 7 Jr A 8.850 16T 9.350 10T 9.150 15 9.175 21 36.525 15T
2019-03-08 Lucky Invite Naperville Gymnastics Club A02 7 Jr A 8.800 15 9.275 13 9.025 18 9.200 16T 36.300 18T
2019-03-01 NGCD Academy's 2019 Flip'r Invitational Naperville Gymnastics Club 6 7 Jr A 8.450 11 9.225 5 8.425 11 9.250 7 35.350 9
2019-02-15 Presidential Classic Naperville Gymnastics Club R3 7 L7 R3 g1 8.525 7 9.125 5 7.900 15 9.225 9T 34.775 12
2019-01-18 2019 Bravo Classic Naperville Gymnastics Club 10A 7 Child 8.250 17 9.200 10 8.800 15 9.225 12T 35.475 14
2018-12-14 2018 Aspire Classic Naperville Gymnastics Club 11B 7 Younger 8.475 14 9.325 3 9.150 9 9.000 14T 35.950 6T
2018-03-16 2018 Illinois Level 6, 9, 10 State Championships Naperville Gymnastics Club 09 6 Ch A 9.050 12 8.550 19 8.675 21T 9.275 21T 35.550 21
2018-03-02 2018 Flip'r Invitational Naperville Gymnastics Club 3 6 Child Age 9-10 9.100 4 9.375 1 8.850 8 8.975 9 36.300 4
2018-02-07 Brestyans Las Vegas Invitational Naperville Gymnastics Club 08B 6 CH A 8.800 11T 8.175 7 8.650 10 9.150 8T 34.775 9
2018-01-19 2018 Bravo Classic Naperville Gymnastics Club 1A 6 Child 9.050 2 9.200 2 8.800 10T 8.675 17 35.725 4T
2018-01-04 Leenda's Island Adventure Naperville Gymnastics Club G01 6 10 and Und 8.500 5 7.950 7 8.650 7 8.600 7 33.700 7
2017-12-15 2017 Aspire Classic Naperville Gymnastics Club 1 6 Jr A 9.025 8 8.750 8 8.675 12 8.800 14 35.250 9
2017-11-17 SCGA Classic Naperville Gymnastics Club 3 6 JrA 9.250 2 8.350 10 8.450 10 8.875 11 34.925 10
2017-02-24 Kinetic Classic Naperville Gymnastics Club 5,6 4 All Ages 8.800 60T 8.575 85T 8.475 117T 8.475 100 34.325 95T
2017-02-17 Midwest Open Naperville Gymnastics Club 1B 4 JR A 8.900 4 8.850 8 8.800 8 7.700 11 34.250 7
2017-02-10 IGI Chicago Style Gymnastics Meet Naperville Gymnastics Club 212L 4 JrA 8.500 1 8.400 7 8.750 6 8.100 6 33.750 5
2017-02-03 2017 Gateway Challenge Naperville Gymnastics Club 7B 4 8 & under 8.525 12 8.575 14 8.400 18 8.150 22 33.650 16
2017-01-07 2017 Flip'r Invitational Naperville Gymnastics Club 4 Lvl 4: Child 8.900 3 8.800 2 8.325 6 8.475 6 34.500 5
Get your scores on
a t-shirt, pin, or hoodie

www.lazysuits.com